• Join FlightAware (Why Join?)
  • Login
  • US Flag 
03:41AM EDT


 

Airport Tracker/Info


-or-


 

Live Flight TrackerFlight Track Log ✈ SWA267 ✈ 24-Apr-2013 ✈ KORF - KBWI

Flight Track Log - Related Links

Times and Time Zones

All times are in EDT time to prevent confusion due to time zone crossing. See the SWA267 flight status page for this flight to view local times or setup timezone preferences in your user account.

Time Position Orientation Groundspeed Altitude Reporting Facility
EDT Latitude Longitude Course Direction KTS MPH feet Rate Location/Type
12:31PM 36.8633 -76.2772 248° West 223 257 3,400  Level Washington Center
12:32PM 36.8881 -76.3475 294° West 219 252 6,000 2,280 Climbing Washington Center
12:33PM 36.9147 -76.4308 292° West 282 325 8,100 2,460 Climbing Washington Center
12:33PM 36.9497 -76.4858 309° West 290 334 10,400 1,980 Climbing Washington Center
12:34PM 37.0011 -76.5722 307° West 301 346 11,600 1,800 Climbing Washington Center
12:35PM 37.0589 -76.6667 307° West 318 366 14,000 2,100 Climbing Washington Center
12:36PM 37.1183 -76.7667 307° West 338 389 15,900 960 Climbing Washington Center
12:37PM 37.2053 -76.8306 330° Northwest 351 404 16,000  Climbing Washington Center
12:38PM 37.3178 -76.8558 350° North 379 436 16,000  Level Washington Center
12:39PM 37.4239 -76.8864 347° North 379 436 16,000 -60 Level Washington Center
12:40PM 37.5153 -76.9061 350° North 384 442 15,900  Descending Washington Center
12:41PM 37.6069 -76.9314 348° North 359 413 16,000  Climbing Washington Center
12:42PM 37.6900 -76.9539 348° North 326 375 16,000  Level Washington Center
12:43PM 37.7836 -76.9764 349° North 311 358 16,000  Level Washington Center
12:44PM 37.8689 -77.0017 347° North 311 358 16,000  Level Washington Center
12:45PM 37.9561 -77.0244 348° North 316 364 16,000  Level Washington Center
12:46PM 38.0433 -77.0472 348° North 316 364 16,000 -360 Level Washington Center
12:47PM 38.1308 -77.0700 348° North 316 364 15,300 -540 Descending Washington Center
12:48PM 38.2264 -77.0956 348° North 322 371 15,000 -180 Descending Washington Center
12:49PM 38.3136 -77.1239 346° North 340 391 15,000 -240 Level Washington Center
12:50PM 38.4139 -77.1075 North 353 406 14,600 -1,260 Descending Washington Center
12:51PM 38.4944 -77.0056 45° Northeast 349 402 12,500 -1,380 Descending Washington Center
12:52PM 38.5683 -76.9142 44° Northeast 355 409 11,900 -1,200 Descending Washington Center
12:53PM 38.6486 -76.8144 44° Northeast 357 411 10,100 -1,440 Descending Washington Center
12:54PM 38.7100 -76.7356 45° Northeast 337 388 9,100 -1,200 Descending Washington Center
12:55PM 38.7503 -76.6378 62° Northeast 319 367 7,700 -1,500 Descending Washington Center
12:56PM 38.7667 -76.6000 61° Northeast 312 359 7,100 -1,500 Descending Potomac TRACON
12:57PM 38.8333 -76.5333 38° Northeast 314 361 5,700 -1,440 Descending Potomac TRACON
12:58PM 38.8833 -76.5500 345° North 285 328 4,400 -900 Descending Potomac TRACON
12:59PM 38.9667 -76.6000 335° Northwest 259 298 4,000 -240 Descending Potomac TRACON
01:00PM 39.0000 -76.6667 303° West 243 280 4,000 -240 Level Potomac TRACON
01:01PM 39.0500 -76.7500 308° West 265 305 3,600 -720 Descending Potomac TRACON
01:02PM 39.1000 -76.7833 333° Northwest 259 298 2,700 -900 Descending Potomac TRACON
01:03PM 39.1667 -76.8167 339° North 235 270 2,000 -600 Descending Potomac TRACON
01:04PM 39.1833 -76.7667 67° East 184 212 1,600 -780 Descending Potomac TRACON
01:05PM 39.1833 -76.7167 90° East 141 162 600 -1,020 Descending Potomac TRACON
01:07PM 39.1667 -76.6667 113° Southeast  Level FlightAware Approximate
01:14PM 39.1754 -76.6683 113° Southeast  Level Estimated
01:15PM 39.1754 -76.6683 113° Southeast  Level Estimated
01:16PM 39.1754 -76.6683 113° Southeast  Level Estimated